Station: CAPE BORDA AWS

  Atmospheric Gas Attenuation - ITU Rec 676-11   --------------- db/100km ---------------
Date Time Temp RH % AH g/m3 Dew Point Wind Direction Speed kph Gust kph Barometer mB Rainfall Since 9am 24GHz 47GHz 76GHz 122GHz 134GHz 241GHz
16 18:10 15.8 82 11.04 12.7 24 30 1020.3 0 24.7 29.6 49.1 129.3 129.4 447.0
16 18:00 16.3 79 10.96 12.7 26 35 1020.2 0 24.5 29.3 48.5 127.5 127.4 440.2
16 17:50 16.4 79 11.03 12.8 24 32 1020.3 0 24.6 29.4 48.7 128.2 128.2 443.0
16 17:40 16.7 76 10.8 12.5 26 32 1020.3 0 24.1 28.9 47.6 125.1 124.5 430.2
16 17:30 16 77 10.49 12 28 35 1020.3 0 23.5 28.6 46.7 122.7 121.4 419.1
16 17:20 15.9 79 10.7 12.3 28 32 1020.5 0 24.0 29.0 47.6 125.3 124.5 429.9
16 17:10 16 79 10.76 12.4 28 32 1020.5 0 24.1 29.1 47.8 125.8 125.1 432.2
16 17:00 16.2 78 10.76 12.4 26 35 1020.5 0 24.1 29.0 47.7 125.5 124.8 431.1
16 16:50 15.8 77 10.36 11.8 28 33 1020.6 0 23.2 28.5 46.3 121.6 119.9 414.0
16 16:40 16.1 78 10.69 12.3 26 32 1020.6 0 23.9 28.9 47.5 124.8 124.0 428.3
16 16:30 16 74 10.08 11.4 26 37 1020.6 0 22.6 27.9 45.0 118.2 115.8 399.6
16 16:20 16.2 75 10.34 11.8 28 33 1020.7 0 23.2 28.3 46.0 120.8 119.1 411.0
16 16:10 16 76 10.35 11.8 24 30 1021 0 23.2 28.4 46.1 121.3 119.5 412.6
16 16:00 16.2 76 10.48 12 20 28 1021.1 0 23.5 28.6 46.6 122.4 121.0 417.8
16 15:50 15.7 78 10.44 11.9 22 26 1021.4 0 23.4 28.7 46.7 122.8 121.3 418.7
16 15:40 15.1 79 10.19 11.5 24 28 1021.6 0 22.9 28.4 46.0 120.9 118.8 409.9
16 15:30 15.5 77 10.18 11.5 26 35 1021.5 0 22.9 28.3 45.7 120.2 118.0 407.3
16 15:20 15.4 74 9.72 10.8 30 35 1021.7 0 21.9 27.6 43.9 115.3 111.9 385.9
16 15:10 15.6 71 9.44 10.4 32 39 1021.7 0 21.3 27.0 42.6 111.9 107.9 371.8
16 15:00 15.7 71 9.5 10.5 28 35 1021.7 0 21.4 27.1 42.8 112.4 108.5 374.1
16 14:50 15.8 71 9.56 10.6 24 28 1021.8 0 21.5 27.2 43.0 113.0 109.2 376.5
16 14:40 16 71 9.67 10.7 22 28 1021.9 0 21.7 27.3 43.4 113.9 110.4 380.7
16 14:30 17.1 66 9.61 10.7 22 30 1021.9 0 21.6 26.9 42.5 111.7 108.1 372.7
16 14:20 15.8 69 9.29 10.1 26 30 1021.9 0 20.9 26.7 41.9 110.1 105.6 364.0
16 14:10 15.4 71 9.33 10.2 32 35 1021.9 0 21.1 26.9 42.3 111.0 106.7 367.7
16 14:00 15.4 70 9.2 10 28 37 1021.8 0 20.8 26.7 41.8 109.6 105.0 361.6
16 13:50 15.9 67 9.07 9.8 26 32 1021.9 0 20.5 26.4 41.0 107.6 102.6 353.3
16 13:40 15.6 67 8.91 9.5 30 35 1022 0 20.2 26.2 40.5 106.3 100.9 347.4
16 13:30 15.3 71 9.27 10.1 26 35 1022.1 0 20.9 26.9 42.1 110.6 106.1 365.4
16 13:20 15.2 69 8.96 9.6 26 32 1022.3 0 20.3 26.4 40.9 107.4 102.1 351.5
16 13:10 15.4 66 8.67 9.1 28 32 1022.3 0 19.7 25.9 39.7 104.0 98.0 337.3
16 13:00 15.4 66 8.67 9.1 28 35 1022.1 0 19.7 25.9 39.7 104.0 98.0 337.3
16 12:50 15.4 66 8.67 9.1 28 32 1022.3 0 19.7 25.9 39.7 104.0 98.0 337.3
16 12:40 15.5 65 8.59 9 28 35 1022.3 0 19.5 25.7 39.3 103.1 96.9 333.3
16 12:30 15.7 65 8.7 9.1 28 35 1022.2 0 19.7 25.8 39.6 103.9 98.0 337.4
16 12:20 15.9 62 8.4 8.6 28 30 1022.3 0 19.1 25.3 38.4 100.6 93.9 323.0
16 12:10 15.8 62 8.35 8.5 22 28 1022.3 0 19.0 25.3 38.2 100.2 93.4 321.2
16 12:00 16.2 60 8.27 8.4 24 33 1022.2 0 18.8 25.0 37.7 98.8 91.9 316.0
16 11:50 15.9 62 8.4 8.6 30 35 1022.2 0 19.1 25.3 38.4 100.5 93.9 323.0
16 11:40 16.5 61 8.57 9 26 32 1022.2 0 19.4 25.4 38.7 101.5 95.4 328.2
16 11:30 15.7 62 8.3 8.4 26 35 1022.1 0 18.9 25.2 38.1 99.7 92.9 319.3
16 11:20 15.9 59 7.99 7.9 30 33 1022 0 18.2 24.7 36.8 96.3 88.7 304.7
16 11:10 15.9 59 7.99 7.9 26 32 1022.1 0 18.2 24.7 36.8 96.3 88.7 304.7
16 11:00 15.5 62 8.2 8.3 24 32 1022 0 18.6 25.1 37.8 98.9 91.8 315.6
16 10:50 15.5 64 8.46 8.7 17 20 1022.1 0 19.2 25.5 38.8 101.7 95.2 327.3
16 10:40 14.9 64 8.16 8.2 24 28 1022 0 18.6 25.2 37.9 99.3 92.0 316.2
16 10:30 14.9 66 8.41 8.6 22 35 1022 0 19.1 25.6 38.9 101.9 95.2 327.5
16 10:20 14.7 68 8.56 8.9 20 28 1022 0 19.5 25.9 39.6 103.7 97.5 335.2
16 10:10 14.8 68 8.61 9 24 26 1022 0 19.6 25.9 39.7 104.1 98.0 337.1
16 10:00 14.9 66 8.41 8.6 22 32 1021.9 0 19.1 25.6 38.9 101.9 95.2 327.5
16 09:50 15.2 62 8.05 8 22 32 1022.1 0 18.3 24.9 37.3 97.8 90.3 310.1
16 09:40 14.8 61 7.73 7.4 26 28 1022.1 0 17.7 24.6 36.3 95.0 86.6 297.3
16 09:30 15.4 60 7.88 7.7 22 30 1021.9 0 18.0 24.6 36.6 95.8 87.9 301.7
16 09:20 14.9 59 7.52 7 26 30 1022.1 0 17.2 24.2 35.4 92.7 83.9 287.7
16 09:10 14.9 59 7.52 7 22 26 1022.1 0 17.2 24.2 35.4 92.7 83.9 287.7
16 09:00 14.8 59 7.47 6.9 22 32 1022 0 17.1 24.2 35.3 92.3 83.3 285.8
16 08:50 14 62 7.48 6.8 24 28 1022.1 0 17.2 24.4 35.7 93.3 84.3 289.1
16 08:40 14.4 62 7.66 7.2 19 20 1022.1 0 17.6 24.6 36.2 94.7 86.2 295.7
16 08:30 14.5 60 7.46 6.8 17 26 1022 0 17.1 24.2 35.4 92.5 83.5 286.4
16 08:20 13.9 64 7.67 7.2 17 19 1022.1 0 17.6 24.7 36.5 95.4 86.9 298.0
16 08:10 14 63 7.6 7.1 19 20 1021.9 0 17.4 24.6 36.1 94.5 85.8 294.5
16 08:00 13.1 65 7.42 6.7 19 24 1021.7 0 17.1 24.5 35.8 93.7 84.5 289.6
16 07:50 13.1 64 7.3 6.5 20 24 1021.7 0 16.8 24.3 35.4 92.5 83.0 284.2
16 07:40 13.2 64 7.35 6.5 17 19 1021.7 0 16.9 24.4 35.5 92.9 83.5 286.1
16 07:30 13.1 67 7.65 7.1 13 20 1021.5 0 17.6 24.9 36.7 96.1 87.5 300.0
16 07:20 12.7 67 7.46 6.7 11 13 1021.6 0 17.2 24.7 36.2 94.6 85.4 292.9
16 07:10 12.5 66 7.26 6.3 11 11 1021.5 0 16.8 24.4 35.5 92.7 83.1 284.6
16 07:00 12.4 66 7.21 6.2 11 15 1021.3 0 16.7 24.4 35.3 92.3 82.5 282.6
16 06:50 12.4 65 7.1 6 13 15 1021.2 0 16.4 24.2 34.9 91.2 81.1 277.6
16 06:40 12.4 65 7.1 6 15 17 1021.1 0 16.4 24.2 34.9 91.2 81.1 277.6
16 06:30 12.3 65 7.06 5.9 13 17 1021 0 16.4 24.1 34.8 90.8 80.7 276.2
16 06:20 12.2 65 7.01 5.8 13 13 1020.9 0 16.3 24.1 34.6 90.4 80.1 274.2
16 06:10 12.3 64 6.95 5.7 13 15 1020.8 0 16.1 24.0 34.3 89.7 79.3 271.2
16 06:00 12.3 64 6.95 5.7 11 13 1020.6 0 16.1 24.0 34.3 89.7 79.3 271.1
16 05:50 12.3 63 6.84 5.5 9 11 1020.8 0 15.9 23.8 33.9 88.6 77.9 266.3
16 05:40 12.1 64 6.86 5.5 11 13 1020.6 0 15.9 23.9 34.0 89.0 78.3 267.8
16 05:30 12.3 63 6.84 5.5 15 20 1020.5 0 15.9 23.8 33.9 88.5 77.9 266.2
16 05:20 12.4 63 6.88 5.6 15 17 1020.5 0 16.0 23.8 34.0 88.8 78.3 267.7
16 05:10 12.5 62 6.82 5.4 17 22 1020.3 0 15.8 23.7 33.7 88.1 77.4 264.6
16 04:50 12.9 63 7.1 6 20 24 1020 0 16.4 24.0 34.6 90.5 80.5 275.6
16 04:40 12.9 64 7.21 6.3 22 24 1019.9 0 16.7 24.2 35.0 91.6 81.9 280.5
16 04:30 13.1 65 7.42 6.7 24 33 1019.7 0 17.1 24.4 35.7 93.5 84.4 289.2
16 04:20 13.1 68 7.76 7.3 22 32 1019.8 0 17.8 25.0 37.1 97.1 88.8 304.5
16 04:10 13 68 7.71 7.2 22 24 1019.7 0 17.7 24.9 36.9 96.7 88.2 302.6
16 04:00 13 67 7.6 7 22 35 1019.7 0 17.5 24.8 36.5 95.5 86.8 297.6
16 03:50 13.1 65 7.42 6.7 22 30 1019.6 0 17.1 24.4 35.7 93.5 84.4 289.1
16 03:40 13.1 60 6.85 5.5 20 22 1019.7 0 15.9 23.6 33.6 87.7 77.1 263.8
16 03:30 13 61 6.92 5.7 19 28 1019.6 0 16.0 23.7 33.9 88.5 78.1 267.2
16 03:20 13 63 7.15 6.1 20 24 1019.8 0 16.5 24.1 34.7 90.9 81.0 277.5
16 03:10 13 62 7.03 5.9 19 20 1019.9 0 16.3 23.9 34.3 89.6 79.5 272.2
16 03:00 13 60 6.8 5.4 20 32 1019.9 0 15.8 23.5 33.4 87.3 76.6 262.0
16 02:50 13 59 6.69 5.2 15 19 1020.1 0 15.5 23.4 33.0 86.2 75.3 257.2
16 02:40 13 60 6.8 5.4 22 28 1020.1 0 15.8 23.5 33.4 87.3 76.6 262.0
16 02:30 13.1 60 6.85 5.5 26 33 1020 0 15.9 23.6 33.6 87.7 77.2 263.9
16 02:20 13.2 62 7.12 6.1 24 28 1020.2 0 16.5 24.0 34.6 90.4 80.5 275.5
16 02:10 13.2 62 7.12 6.1 26 32 1020.2 0 16.5 24.0 34.6 90.4 80.5 275.5
16 02:00 13.2 59 6.77 5.4 24 35 1020.2 0 15.7 23.4 33.2 86.8 76.1 260.1
16 01:50 13.2 62 7.12 6.1 24 28 1020.4 0 16.5 24.0 34.6 90.4 80.5 275.6
16 01:40 13.2 66 7.58 7 22 26 1020.6 0 17.4 24.7 36.4 95.2 86.4 296.2
16 01:20 13.2 58 6.66 5.1 17 19 1020.8 0 15.5 23.3 32.8 85.7 74.7 255.4

Last Refresh: 16-Jan-2021 18:26:31

Most of the information presented on this site is sourced from the Bureau of Meteorology.  Copyright in all material sourced from the Bureau of Meteorology resides with the Commonwealth of Australia.